createdAt,value
2023-05-24T00:01:26.612Z,9.30
2023-05-24T00:03:59.027Z,9.10
2023-05-24T00:06:28.621Z,9.20
2023-05-24T00:08:56.902Z,9.10
2023-05-24T00:11:24.887Z,9.10
2023-05-24T00:13:53.001Z,9.20
2023-05-24T00:16:21.409Z,9.20
2023-05-24T00:18:52.142Z,9.10
2023-05-24T00:21:20.255Z,9.10
2023-05-24T00:23:48.316Z,9.00
2023-05-24T00:26:16.543Z,9.10
2023-05-24T00:28:44.892Z,9.00
2023-05-24T00:31:13.190Z,9.00
2023-05-24T00:33:41.157Z,9.00
2023-05-24T00:36:10.614Z,9.10
2023-05-24T00:38:38.624Z,9.10
2023-05-24T00:41:06.864Z,9.10
2023-05-24T00:43:35.621Z,9.10
2023-05-24T00:46:29.696Z,9.10
2023-05-24T00:48:58.584Z,9.10
2023-05-24T00:51:28.625Z,9.10
2023-05-24T00:53:57.207Z,9.10
2023-05-24T00:56:26.289Z,9.00
2023-05-24T00:58:56.161Z,9.00
2023-05-24T01:01:25.991Z,9.00
2023-05-24T01:03:54.853Z,8.90
2023-05-24T01:06:23.568Z,8.90
2023-05-24T01:09:17.224Z,8.90
2023-05-24T01:11:57.024Z,8.80
2023-05-24T01:14:31.093Z,8.80
2023-05-24T01:17:11.757Z,8.90
2023-05-24T01:19:53.295Z,8.90
2023-05-24T01:23:04.142Z,8.80
2023-05-24T01:25:55.227Z,8.90
2023-05-24T01:28:25.978Z,8.90
2023-05-24T01:30:54.895Z,8.80
2023-05-24T01:33:23.142Z,8.90
2023-05-24T01:35:51.385Z,8.80
2023-05-24T01:38:19.493Z,8.80
2023-05-24T01:40:51.714Z,8.90
2023-05-24T01:43:28.847Z,8.90
2023-05-24T01:46:07.436Z,8.90
2023-05-24T01:48:47.318Z,8.90
2023-05-24T01:51:19.706Z,8.90
2023-05-24T01:53:50.035Z,8.90
2023-05-24T01:56:20.404Z,8.90
2023-05-24T01:58:52.758Z,8.90
2023-05-24T02:01:21.479Z,9.00
2023-05-24T02:03:50.902Z,8.90
2023-05-24T02:06:19.329Z,8.90
2023-05-24T02:08:47.942Z,9.00
2023-05-24T02:11:15.930Z,9.00
2023-05-24T02:13:44.021Z,9.00
2023-05-24T02:16:13.648Z,9.00
2023-05-24T02:18:44.723Z,9.00
2023-05-24T02:21:13.004Z,9.00
2023-05-24T02:23:41.249Z,9.00
2023-05-24T02:26:11.565Z,9.00
2023-05-24T02:28:39.962Z,9.10
2023-05-24T02:31:08.628Z,9.00
2023-05-24T02:33:38.325Z,9.00
2023-05-24T02:36:06.565Z,9.00
2023-05-24T02:38:34.580Z,9.00
2023-05-24T02:41:02.589Z,9.10
2023-05-24T02:43:30.954Z,9.10
2023-05-24T02:45:59.041Z,9.10
2023-05-24T02:48:27.215Z,9.10
2023-05-24T02:50:56.900Z,9.10
2023-05-24T02:53:25.020Z,9.10
2023-05-24T02:55:53.299Z,9.10
2023-05-24T02:58:21.366Z,9.10
2023-05-24T03:00:49.810Z,9.10
2023-05-24T03:03:18.341Z,9.10
2023-05-24T03:05:46.559Z,9.10
2023-05-24T03:08:16.825Z,9.10
2023-05-24T03:10:44.996Z,9.10
2023-05-24T03:13:13.118Z,9.10
2023-05-24T03:15:41.565Z,9.20
2023-05-24T03:18:09.719Z,9.20
2023-05-24T03:20:37.873Z,9.10
2023-05-24T03:23:06.073Z,9.10
2023-05-24T03:25:35.436Z,9.10
2023-05-24T03:28:03.438Z,9.10
2023-05-24T03:30:31.817Z,9.10
2023-05-24T03:32:59.972Z,9.10
2023-05-24T03:35:28.239Z,9.10
2023-05-24T03:37:56.642Z,9.00
2023-05-24T03:40:25.738Z,9.00
2023-05-24T03:42:55.453Z,9.00
2023-05-24T03:45:34.638Z,9.00
2023-05-24T03:48:06.537Z,9.00
2023-05-24T03:50:34.629Z,9.10
2023-05-24T03:53:02.719Z,9.10
2023-05-24T03:55:30.817Z,9.10
2023-05-24T03:58:00.310Z,9.10
2023-05-24T04:00:28.533Z,9.10
2023-05-24T04:02:56.925Z,9.20
2023-05-24T04:05:27.078Z,9.30
2023-05-24T04:07:55.591Z,9.30
2023-05-24T04:10:23.918Z,9.20
2023-05-24T04:12:52.286Z,9.30
2023-05-24T04:15:23.086Z,9.30
2023-05-24T04:17:55.380Z,9.20
2023-05-24T04:20:25.623Z,9.30
2023-05-24T04:22:54.055Z,9.20
2023-05-24T04:25:22.324Z,9.30
2023-05-24T04:27:50.432Z,9.30
2023-05-24T04:30:18.833Z,9.30
2023-05-24T04:32:48.819Z,9.30
2023-05-24T04:35:17.154Z,9.30
2023-05-24T04:37:45.346Z,9.40
2023-05-24T04:40:14.065Z,9.40
2023-05-24T04:42:42.130Z,9.40
2023-05-24T04:45:11.261Z,9.40
2023-05-24T04:47:39.509Z,9.50
2023-05-24T04:50:09.799Z,9.50
2023-05-24T04:52:38.389Z,9.50
2023-05-24T04:55:07.302Z,9.50
2023-05-24T04:57:35.280Z,9.60
2023-05-24T05:00:04.684Z,9.60
2023-05-24T05:02:33.520Z,9.70
2023-05-24T05:05:01.724Z,9.70
2023-05-24T05:07:31.227Z,9.70
2023-05-24T05:09:59.511Z,9.70
2023-05-24T05:12:27.522Z,9.70
2023-05-24T05:14:55.552Z,9.80
2023-05-24T05:17:23.945Z,9.80
2023-05-24T05:19:51.959Z,9.80
2023-05-24T05:22:20.432Z,9.80
2023-05-24T05:24:49.862Z,9.80
2023-05-24T05:27:18.228Z,9.90
2023-05-24T05:29:46.298Z,9.90
2023-05-24T05:32:14.392Z,9.80
2023-05-24T05:34:42.475Z,9.90
2023-05-24T05:37:10.518Z,9.90
2023-05-24T05:39:38.692Z,9.90
2023-05-24T05:42:08.651Z,10.00
2023-05-24T05:44:37.200Z,10.00
2023-05-24T05:47:07.403Z,10.00
2023-05-24T05:49:36.381Z,10.10
2023-05-24T05:52:04.597Z,10.10
2023-05-24T05:54:32.845Z,10.10
2023-05-24T05:57:01.903Z,10.10
2023-05-24T05:59:33.276Z,10.20
2023-05-24T06:02:01.339Z,10.20
2023-05-24T06:04:29.692Z,10.30
2023-05-24T06:06:57.725Z,10.40
2023-05-24T06:09:25.733Z,10.40
2023-05-24T06:11:53.747Z,10.40
2023-05-24T06:14:25.189Z,10.40
2023-05-24T06:16:55.763Z,10.40
2023-05-24T06:19:25.022Z,10.40
2023-05-24T06:21:53.380Z,10.40
2023-05-24T06:24:21.611Z,10.50
2023-05-24T06:26:50.149Z,10.50
2023-05-24T06:29:20.150Z,10.60
2023-05-24T06:31:48.349Z,10.60
2023-05-24T06:34:19.007Z,10.70
2023-05-24T06:36:48.364Z,10.70
2023-05-24T06:39:17.758Z,10.80
2023-05-24T06:41:46.830Z,10.80
2023-05-24T06:44:14.912Z,10.80
2023-05-24T06:46:43.273Z,10.80
2023-05-24T06:49:11.639Z,10.80
2023-05-24T06:51:41.096Z,10.80
2023-05-24T06:54:09.428Z,10.80
2023-05-24T06:56:37.461Z,10.80
2023-05-24T06:59:06.241Z,10.80
2023-05-24T07:01:34.382Z,10.90
2023-05-24T07:04:02.467Z,10.90
2023-05-24T07:06:30.603Z,10.90
2023-05-24T07:09:01.822Z,10.90
2023-05-24T07:11:30.062Z,10.90
2023-05-24T07:13:58.444Z,11.00
2023-05-24T07:16:26.565Z,11.10
2023-05-24T07:18:58.373Z,11.00
2023-05-24T07:21:26.593Z,11.10
2023-05-24T07:23:54.640Z,11.20
2023-05-24T07:26:24.344Z,11.20
2023-05-24T07:28:52.356Z,11.20
2023-05-24T07:31:21.359Z,11.30
2023-05-24T07:33:49.502Z,11.30
2023-05-24T07:36:19.084Z,11.40
2023-05-24T07:38:47.185Z,11.40
2023-05-24T07:41:15.498Z,11.40
2023-05-24T07:43:44.940Z,11.50
2023-05-24T07:46:13.336Z,11.50
2023-05-24T07:48:42.279Z,11.50
2023-05-24T07:51:10.413Z,11.50
2023-05-24T07:53:38.663Z,11.50
2023-05-24T07:56:08.550Z,11.50
2023-05-24T07:58:36.602Z,11.60
2023-05-24T08:01:06.430Z,11.60
2023-05-24T08:03:37.160Z,11.60
2023-05-24T08:06:05.594Z,11.60
2023-05-24T08:08:33.795Z,11.60
2023-05-24T08:11:01.974Z,11.70
2023-05-24T08:13:30.039Z,11.70
2023-05-24T08:15:58.934Z,11.70
2023-05-24T08:18:28.764Z,11.60
2023-05-24T08:20:57.166Z,11.70
2023-05-24T08:23:26.179Z,11.70
2023-05-24T08:25:54.387Z,11.80
2023-05-24T08:28:23.000Z,11.80
2023-05-24T08:30:51.203Z,11.80
2023-05-24T08:33:19.773Z,11.90
2023-05-24T08:35:49.875Z,11.90
2023-05-24T08:38:17.984Z,11.90
2023-05-24T08:40:46.446Z,11.90
2023-05-24T08:43:15.839Z,12.00
2023-05-24T08:45:45.501Z,12.10
2023-05-24T08:48:14.634Z,12.10
2023-05-24T08:50:45.222Z,12.20
2023-05-24T08:53:16.274Z,12.20
2023-05-24T08:55:45.241Z,12.20
2023-05-24T08:58:14.429Z,12.20
2023-05-24T09:00:42.813Z,12.30
2023-05-24T09:03:12.076Z,12.30
2023-05-24T09:05:42.571Z,12.30
2023-05-24T09:08:11.728Z,12.30
2023-05-24T09:10:52.912Z,12.30
2023-05-24T09:13:24.809Z,12.30
2023-05-24T09:15:53.426Z,12.30
2023-05-24T09:18:22.045Z,12.30
2023-05-24T09:20:51.006Z,12.30
2023-05-24T09:23:19.871Z,12.30
2023-05-24T09:25:49.583Z,12.30
2023-05-24T09:28:21.008Z,12.40
2023-05-24T09:31:02.729Z,12.50
2023-05-24T09:33:32.949Z,12.60
2023-05-24T09:36:02.250Z,12.70
2023-05-24T09:38:30.446Z,12.70
2023-05-24T09:41:05.835Z,12.70
2023-05-24T09:43:36.323Z,12.80
2023-05-24T09:46:05.061Z,12.80
2023-05-24T09:48:33.510Z,12.90
2023-05-24T09:51:06.400Z,12.90
2023-05-24T09:53:35.850Z,12.90
2023-05-24T09:56:08.799Z,13.00
2023-05-24T09:58:37.600Z,13.00
2023-05-24T10:01:07.617Z,13.00
2023-05-24T10:03:37.909Z,13.10
2023-05-24T10:06:08.028Z,13.10
2023-05-24T10:08:37.547Z,13.20
2023-05-24T10:11:09.451Z,13.20
2023-05-24T10:13:37.958Z,13.20
2023-05-24T10:16:06.768Z,13.30
2023-05-24T10:18:35.260Z,13.30
2023-05-24T10:21:08.062Z,13.30
2023-05-24T10:23:39.259Z,13.20
2023-05-24T10:26:11.501Z,13.20
2023-05-24T10:28:45.949Z,13.20
2023-05-24T10:31:19.239Z,13.20
2023-05-24T10:33:48.570Z,13.20
2023-05-24T10:36:17.504Z,13.30
2023-05-24T10:38:48.060Z,13.30
2023-05-24T10:41:19.645Z,13.40
2023-05-24T10:44:04.865Z,13.50
2023-05-24T10:46:36.940Z,13.40
2023-05-24T10:49:07.787Z,13.40
2023-05-24T10:51:38.518Z,13.50
2023-05-24T10:54:15.517Z,13.50
2023-05-24T10:56:46.847Z,13.60
2023-05-24T10:59:26.353Z,13.70
2023-05-24T11:01:58.165Z,13.80
2023-05-24T11:04:27.453Z,13.80
2023-05-24T11:07:01.801Z,13.80
2023-05-24T11:09:30.101Z,13.90
2023-05-24T11:12:04.062Z,13.90
2023-05-24T11:14:33.544Z,13.90
2023-05-24T11:17:02.217Z,13.90
2023-05-24T11:19:35.706Z,13.70
2023-05-24T11:22:05.376Z,13.70
2023-05-24T11:24:34.807Z,13.60
2023-05-24T11:27:06.122Z,13.50
2023-05-24T11:29:36.075Z,13.60
2023-05-24T11:32:07.953Z,13.70
2023-05-24T11:34:36.423Z,13.70
2023-05-24T11:37:05.980Z,13.70
2023-05-24T11:39:35.951Z,13.70
2023-05-24T11:42:11.725Z,13.80
2023-05-24T11:44:40.288Z,13.80
2023-05-24T11:47:09.295Z,13.90
2023-05-24T11:49:37.419Z,14.10
2023-05-24T11:52:06.458Z,14.10
2023-05-24T11:54:35.026Z,14.20
2023-05-24T11:57:03.551Z,14.10
2023-05-24T11:59:35.992Z,14.00
2023-05-24T12:02:05.856Z,14.00
2023-05-24T12:04:34.912Z,14.10
2023-05-24T12:07:03.700Z,14.20
2023-05-24T12:09:31.902Z,14.30
2023-05-24T12:12:00.023Z,14.50
2023-05-24T12:14:31.028Z,14.60
2023-05-24T12:17:01.939Z,14.80
2023-05-24T12:19:34.684Z,14.80
2023-05-24T12:22:06.807Z,14.80
2023-05-24T12:24:36.265Z,14.80
2023-05-24T12:27:08.101Z,14.80
2023-05-24T12:29:37.860Z,14.90
2023-05-24T12:32:13.542Z,14.90
2023-05-24T12:34:43.366Z,14.70
2023-05-24T12:37:13.184Z,14.60
2023-05-24T12:39:43.434Z,14.60
2023-05-24T12:42:14.299Z,14.70
2023-05-24T12:44:43.113Z,14.80
2023-05-24T12:47:12.999Z,14.80
2023-05-24T12:49:41.131Z,14.70
2023-05-24T12:52:09.445Z,14.60
2023-05-24T12:54:37.664Z,14.70
2023-05-24T12:57:06.318Z,14.70
2023-05-24T12:59:35.034Z,14.60
2023-05-24T13:02:03.261Z,14.40
2023-05-24T13:04:33.826Z,14.50
2023-05-24T13:07:03.015Z,14.70
2023-05-24T13:09:31.136Z,14.60
2023-05-24T13:11:59.509Z,14.70
2023-05-24T13:14:27.837Z,14.50
2023-05-24T13:16:56.258Z,14.50
2023-05-24T13:19:24.509Z,14.40
2023-05-24T13:21:54.073Z,14.50
2023-05-24T13:24:23.232Z,14.50
2023-05-24T13:26:54.511Z,14.50
2023-05-24T13:31:54.847Z,14.60
2023-05-24T13:34:23.437Z,14.60
2023-05-24T13:36:52.837Z,14.60
2023-05-24T13:39:21.629Z,14.40
2023-05-24T13:41:50.089Z,14.40
2023-05-24T13:44:18.443Z,14.30
2023-05-24T13:46:47.274Z,14.30
2023-05-24T13:49:16.144Z,14.30
2023-05-24T13:51:44.195Z,14.30
2023-05-24T13:54:14.279Z,14.30
2023-05-24T13:56:44.240Z,14.40
2023-05-24T13:59:12.978Z,14.50
2023-05-24T14:01:41.442Z,14.60
2023-05-24T14:04:10.056Z,14.50
2023-05-24T14:06:38.430Z,14.40
2023-05-24T14:09:08.488Z,14.50
2023-05-24T14:11:38.143Z,14.50
2023-05-24T14:16:37.712Z,14.70
2023-05-24T14:19:06.357Z,14.70
2023-05-24T14:21:34.458Z,14.60
2023-05-24T14:24:02.562Z,14.60
2023-05-24T14:26:31.063Z,14.60
2023-05-24T14:29:00.507Z,14.70
2023-05-24T14:31:28.610Z,14.70
2023-05-24T14:33:56.708Z,14.70
2023-05-24T14:36:25.050Z,14.60
2023-05-24T14:38:53.339Z,14.70
2023-05-24T14:41:22.617Z,14.70
2023-05-24T14:43:51.423Z,14.70
2023-05-24T14:46:21.201Z,14.70
2023-05-24T14:48:49.209Z,14.80
2023-05-24T14:51:17.619Z,14.90
2023-05-24T14:53:46.571Z,14.80
2023-05-24T14:56:15.201Z,14.60
2023-05-24T14:58:43.573Z,14.60
2023-05-24T15:01:11.719Z,14.60
2023-05-24T15:03:41.331Z,14.50
2023-05-24T15:06:09.663Z,14.60
2023-05-24T15:08:37.793Z,14.70
2023-05-24T15:11:06.428Z,14.60
2023-05-24T15:13:35.018Z,14.70
2023-05-24T15:16:03.156Z,14.80
2023-05-24T15:18:32.666Z,14.90
2023-05-24T15:21:02.093Z,15.00
2023-05-24T15:23:30.560Z,15.10
2023-05-24T15:25:58.580Z,15.10
2023-05-24T15:28:27.237Z,15.00
2023-05-24T15:30:55.972Z,15.00
2023-05-24T15:33:24.083Z,15.10
2023-05-24T15:35:52.173Z,15.30
2023-05-24T15:38:22.734Z,15.30
2023-05-24T15:40:50.841Z,15.30
2023-05-24T15:43:19.788Z,15.20
2023-05-24T15:45:57.858Z,15.20
2023-05-24T15:48:25.870Z,15.20
2023-05-24T15:51:42.944Z,15.10
2023-05-24T15:53:43.600Z,15.10
2023-05-24T15:56:12.192Z,15.20
2023-05-24T15:58:40.382Z,15.20
2023-05-24T16:01:08.523Z,15.30
2023-05-24T16:03:37.977Z,15.30
2023-05-24T16:06:06.864Z,15.30
2023-05-24T16:08:35.002Z,15.40
2023-05-24T16:11:08.093Z,15.40
2023-05-24T16:13:36.323Z,15.20
2023-05-24T16:16:04.472Z,14.90
2023-05-24T16:18:34.586Z,14.70
2023-05-24T16:21:05.346Z,14.70
2023-05-24T16:23:33.522Z,14.70
2023-05-24T16:26:01.580Z,14.60
2023-05-24T16:28:31.052Z,14.50
2023-05-24T16:31:02.963Z,14.40
2023-05-24T16:33:31.294Z,14.40
2023-05-24T16:36:03.328Z,14.40
2023-05-24T16:38:31.983Z,14.40
2023-05-24T16:41:00.061Z,14.40
2023-05-24T16:43:28.159Z,14.50
2023-05-24T16:45:57.856Z,14.50
2023-05-24T16:48:28.729Z,14.40
2023-05-24T16:50:57.171Z,14.40
2023-05-24T16:53:26.276Z,14.20
2023-05-24T16:55:55.900Z,14.10
2023-05-24T16:58:25.562Z,14.20
2023-05-24T17:00:54.567Z,14.30
2023-05-24T17:03:28.103Z,14.30
2023-05-24T17:06:01.085Z,14.30
2023-05-24T17:08:31.210Z,14.40
2023-05-24T17:10:59.242Z,14.40
2023-05-24T17:13:28.327Z,14.20
2023-05-24T17:15:56.689Z,14.10
2023-05-24T17:18:30.678Z,14.20
2023-05-24T17:21:00.166Z,14.10
2023-05-24T17:23:29.518Z,14.10
2023-05-24T17:25:57.692Z,14.00
2023-05-24T17:28:27.830Z,14.00
2023-05-24T17:30:56.419Z,13.90
2023-05-24T17:33:26.992Z,14.00
2023-05-24T17:35:56.885Z,13.90
2023-05-24T17:38:25.701Z,13.90
2023-05-24T17:40:59.157Z,13.90
2023-05-24T17:43:29.156Z,13.90
2023-05-24T17:46:03.296Z,14.00
2023-05-24T17:48:33.940Z,13.90
2023-05-24T17:51:02.605Z,13.90
2023-05-24T17:53:32.386Z,13.90
2023-05-24T17:56:00.803Z,13.80
2023-05-24T17:58:30.776Z,13.70
2023-05-24T18:00:59.081Z,13.70
2023-05-24T18:03:27.140Z,13.70
2023-05-24T18:05:56.566Z,13.70
2023-05-24T18:08:25.336Z,13.70
2023-05-24T18:10:53.400Z,13.70
2023-05-24T18:13:21.711Z,13.70
2023-05-24T18:15:50.038Z,13.60
2023-05-24T18:18:18.294Z,13.70
2023-05-24T18:20:46.439Z,13.70
2023-05-24T18:23:16.158Z,13.70
2023-05-24T18:25:45.018Z,13.70
2023-05-24T18:28:13.989Z,13.70
2023-05-24T18:30:43.962Z,13.70
2023-05-24T18:33:12.332Z,13.70
2023-05-24T18:35:40.719Z,13.70
2023-05-24T18:38:09.032Z,13.70
2023-05-24T18:40:38.499Z,13.60
2023-05-24T18:43:06.796Z,13.70
2023-05-24T18:45:34.959Z,13.60
2023-05-24T18:48:03.063Z,13.60
2023-05-24T18:50:31.188Z,13.60
2023-05-24T18:52:59.233Z,13.60
2023-05-24T18:55:27.299Z,13.60
2023-05-24T18:57:57.017Z,13.60
2023-05-24T19:00:25.206Z,13.60
2023-05-24T19:02:55.350Z,13.60
2023-05-24T19:05:23.843Z,13.50
2023-05-24T19:07:51.871Z,13.40
2023-05-24T19:10:19.958Z,13.30
2023-05-24T19:12:48.171Z,13.30
2023-05-24T19:15:18.008Z,13.20
2023-05-24T19:17:46.055Z,13.20
2023-05-24T19:20:14.332Z,13.10
2023-05-24T19:22:42.526Z,13.10
2023-05-24T19:25:11.099Z,13.00
2023-05-24T19:27:44.776Z,12.90
2023-05-24T19:30:24.459Z,12.90
2023-05-24T19:32:52.622Z,12.80
2023-05-24T19:35:21.052Z,12.80
2023-05-24T19:37:49.389Z,12.80
2023-05-24T19:40:17.676Z,12.70
2023-05-24T19:42:45.763Z,12.70
2023-05-24T19:45:14.408Z,12.60
2023-05-24T19:47:44.622Z,12.60
2023-05-24T19:50:12.893Z,12.60
2023-05-24T19:52:40.935Z,12.50
2023-05-24T19:55:10.583Z,12.40
2023-05-24T19:57:38.636Z,12.30
2023-05-24T20:00:08.053Z,12.30
2023-05-24T20:02:36.823Z,12.30
2023-05-24T20:05:07.069Z,12.20
2023-05-24T20:07:35.086Z,12.20
2023-05-24T20:10:05.178Z,12.10
2023-05-24T20:12:34.650Z,12.10
2023-05-24T20:15:02.846Z,12.10
2023-05-24T20:17:31.013Z,12.00
2023-05-24T20:19:59.045Z,12.00
2023-05-24T20:22:30.797Z,12.00
2023-05-24T20:24:58.956Z,12.00
2023-05-24T20:27:26.997Z,12.00
2023-05-24T20:29:54.999Z,12.00
2023-05-24T20:32:23.056Z,12.00
2023-05-24T20:34:51.379Z,12.00
2023-05-24T20:37:19.865Z,12.00
2023-05-24T20:39:49.420Z,12.00
2023-05-24T20:42:18.539Z,12.00
2023-05-24T20:44:46.577Z,12.00
2023-05-24T20:47:16.655Z,11.90
2023-05-24T20:49:44.691Z,12.00
2023-05-24T20:52:12.731Z,11.90
2023-05-24T20:54:40.942Z,12.00
2023-05-24T20:57:10.276Z,12.00
2023-05-24T20:59:38.234Z,12.00
2023-05-24T21:02:06.448Z,12.00
2023-05-24T21:04:34.474Z,12.00
2023-05-24T21:07:02.449Z,12.00
2023-05-24T21:09:30.523Z,12.00
2023-05-24T21:11:58.478Z,12.00
2023-05-24T21:14:28.287Z,12.00
2023-05-24T21:16:56.419Z,11.90
2023-05-24T21:19:24.455Z,11.90
2023-05-24T21:21:52.433Z,11.90
2023-05-24T21:24:20.496Z,11.90
2023-05-24T21:26:48.604Z,11.90
2023-05-24T21:29:16.695Z,11.80
2023-05-24T21:31:46.423Z,11.80
2023-05-24T21:34:14.384Z,11.80
2023-05-24T21:36:42.659Z,11.80
2023-05-24T21:39:10.794Z,11.80
2023-05-24T21:41:39.114Z,11.90
2023-05-24T21:44:08.168Z,11.90
2023-05-24T21:46:36.766Z,11.80
2023-05-24T21:49:06.289Z,11.80
2023-05-24T21:51:35.912Z,11.70
2023-05-24T21:54:13.782Z,11.70
2023-05-24T21:57:04.216Z,11.60
2023-05-24T21:59:53.694Z,11.60
2023-05-24T22:02:24.180Z,11.70
2023-05-24T22:04:54.966Z,11.70
2023-05-24T22:07:24.755Z,11.70
2023-05-24T22:10:01.829Z,11.70
2023-05-24T22:12:36.969Z,11.70
2023-05-24T22:15:07.088Z,11.70
2023-05-24T22:17:42.461Z,11.70
2023-05-24T22:20:13.964Z,11.70
2023-05-24T22:22:49.440Z,11.70
2023-05-24T22:25:21.531Z,11.70
2023-05-24T22:27:53.578Z,11.60
2023-05-24T22:30:27.478Z,11.60
2023-05-24T22:32:57.604Z,11.60
2023-05-24T22:35:35.508Z,11.60
2023-05-24T22:38:04.799Z,11.60
2023-05-24T22:40:37.022Z,11.70
2023-05-24T22:43:06.996Z,11.70
2023-05-24T22:45:36.830Z,11.70
2023-05-24T22:48:06.396Z,11.70
2023-05-24T22:50:38.568Z,11.70
2023-05-24T22:53:11.823Z,11.70
2023-05-24T22:55:40.339Z,11.70
2023-05-24T22:58:08.359Z,11.60
2023-05-24T23:00:36.758Z,11.60
2023-05-24T23:03:04.948Z,11.60
2023-05-24T23:05:34.637Z,11.60
2023-05-24T23:08:04.737Z,11.60
2023-05-24T23:10:32.969Z,11.60
2023-05-24T23:13:01.001Z,11.60
2023-05-24T23:15:29.190Z,11.60
2023-05-24T23:17:58.372Z,11.70
2023-05-24T23:20:27.720Z,11.60
2023-05-24T23:22:55.895Z,11.60
2023-05-24T23:25:25.342Z,11.60
2023-05-24T23:27:53.451Z,11.60
2023-05-24T23:30:21.526Z,11.60
2023-05-24T23:32:49.938Z,11.70
2023-05-24T23:35:18.249Z,11.70
2023-05-24T23:37:46.741Z,11.70
2023-05-24T23:40:15.060Z,11.70
2023-05-24T23:42:44.451Z,11.60
2023-05-24T23:45:15.680Z,11.60
2023-05-24T23:47:43.757Z,11.50
2023-05-24T23:50:12.283Z,11.60
2023-05-24T23:52:40.635Z,11.50
2023-05-24T23:55:09.464Z,11.50
2023-05-24T23:57:37.559Z,11.50
